Racecast

Emma Wagenhauser

Temperance Bedford (MI) · 11 · SECMI D1MONROE · Compare head to head

Athlete rating 102.8 2018 XC season
Best race 104.0 XC
Races 73
Seasons 5 2015 — 2019

RankedNation #71482·MI #3628·MI D1 #2073·SEC #194·Team #90 ?

Rating scale ?
Speed rating — all races

Cross Country

XC speed rating

2018 XC 100.0

Temperance Bedford (MI) · Grade 11

Date Meet Event Result Place Rating Difficulty PR/SR Flags
2018-10-18 Hudson Mills Metropark - OFFICIAL 5000m 23:37.2 75th · 10th on team 104.0 -0.006 ★PR ★CR ★R SR CSR RSR
2018-10-13 Munson Park 5000m 24:09.7 24th · 10th on team 102.8 +0.007 PR ★CR R SR CSR RSR
2018-10-09 Indian Creek OFFICIAL 5000m 24:58 11th · 11th on team 101.4 +0.004 ★CR CSR
2018-09-29 Lake Erie Metro Park OFFICIAL 5000m 24:34.5 61st · 10th on team 101.6 +0.007 ★CR SR CSR RSR
2018-09-25 Cass Benton Park OFFICIAL 5000m 26:16.9 32nd · 7th on team 97.3 +0.034 ★CR SR CSR RSR
2018-09-06 Willow Metropark OFFICIAL 5000m 26:21.9 88th · 10th on team 93.1 -0.003 ★CR SR CSR RSR

2017 XC 98.8

Temperance Bedford (MI) · Grade 10

Date Meet Event Result Place Rating Difficulty PR/SR Flags
2017-10-10 Indian Creek OFFICIAL 5000m 26:42.6 24th · 20th on team 93.3 +0.004 CR CSR
2017-09-22 Ella Sharp Park OFFICIAL 5000m 24:57.8 74th · 9th on team 101.2 -0.001 ★CR CSR RSR
2017-09-12 Hudson Mills Metropark - OFFICIAL 5000m 24:41.9 63rd · 9th on team 99.8 -0.006 CR CSR
2017-09-09 Hedges Boyer Park 5000m 24:29.1 159th · 4th on team 100.9 -0.003 PR ★CR SR CSR RSR

Track & Field

TF speed rating

2019 TF

Temperance Bedford (MI) · Grade 11

Date Meet Event Result Place Rating Difficulty PR/SR Flags
2019-05-25 2019 MITCA Division 1 Team State Meet lj 15-06.25 -0.020
2019-05-25 2019 MITCA Division 1 Team State Meet 100m 13.88 23rd · 1st on team -0.020
2019-05-25 2019 MITCA Division 1 Team State Meet 200m 28.82 26th · 1st on team -0.020
2019-05-17 MHSAA LP Region 04-1 @ Saline lj 16' 2" -0.033
2019-05-10 SEC Red Divisional Championship Meet lj 16' 0" -0.022
2019-05-10 SEC Red Divisional Championship Meet 100m 13.73 15th · 1st on team -0.022 ★PR SR
2019-05-10 SEC Red Divisional Championship Meet 200m 29.99 16th · 2nd on team -0.022
2019-04-30 SEC-R: Monroe & Bedford @ Skyline 100m 14.03 4th · 1st on team -0.021
2019-04-23 SEC Red Division - Bedford vs Saline lj 16-00.00 -0.026
2019-04-23 SEC Red Division - Bedford vs Saline 200m 28.5 2nd · 1st on team -0.026 ★PR SR
2019-04-11 Holland Springfield Invitational lj 15-09.00 -0.020
2019-04-11 Holland Springfield Invitational 100m 13.77 6th · 1st on team -0.020 PR SR
2019-04-05 Whitmer Golden W Invitational lj 16-01.00 -0.034
2019-04-05 Whitmer Golden W Invitational 100m 13.99 8th · 1st on team -0.034 PR SR

2018 TF

Temperance Bedford (MI) · Grade 10

Date Meet Event Result Place Rating Difficulty PR/SR Flags
2018-06-02 2018 MHSAA LP D1 State T&F Championships lj 15-04.75 -0.029
2018-05-26 2018 MITCA D1 Team State Championships lj 14'08.25 -0.018
2018-05-26 2018 MITCA D1 Team State Championships 200m 28.98 22nd · 1st on team -0.018
2018-05-18 MHSAA LP Region 03-1 @ Saline lj 17-00.25 -0.033
2018-05-11 SEC Red Championship lj 14'11.50 -0.024
2018-05-11 SEC Red Championship 200m 28.89 8th · 1st on team -0.024
2018-05-07 SEC Red: Huron @ Bedford lj 14'6 -0.026
2018-05-01 SEC Red: Bedford & Skyline @ Monroe lj 15-05.50 -0.022
2018-04-24 Saline/Bedford Dual lj 15-05.00 -0.033
2018-04-24 Saline/Bedford Dual 200m 29.73 3rd · 2nd on team -0.033
2018-04-24 Saline/Bedford Dual 100m 14.05 3rd · 1st on team -0.033
2018-04-21 Whitmore Lake HS Invite lj 15-03.50 -0.016
2018-04-21 Whitmore Lake HS Invite 200m 28.84 9th · 1st on team -0.016
2018-04-21 Whitmore Lake HS Invite 200m 29.09 11th · 2nd on team -0.016
2018-04-12 Springfield Invatational lj 15-02.00 -0.020
2018-04-12 Springfield Invatational 200m 28.8 7th · 1st on team -0.020 PR SR
2018-04-10 SEC Red Division - Pioneer @ Bedford lj 14'4.5 -0.026
2018-04-10 SEC Red Division - Pioneer @ Bedford 100m 14.04 5th · 2nd on team -0.026 PR SR
2018-04-10 SEC Red Division - Pioneer @ Bedford 200m 29.34 5th · 2nd on team -0.026
2018-04-06 Whitmer Golden W Invitational 200m 29.31 6th · 1st on team -0.034 PR SR

2017 TF

Temperance Bedford (MI) · Grade 9

Date Meet Event Result Place Rating Difficulty PR/SR Flags
2017-04-25 SEC Red: Bedford @ Skyline 100m 14.73 12th · 6th on team -0.021 SR
2017-04-25 SEC Red: Bedford @ Skyline 200m 30.6 15th · 8th on team -0.021 SR
2017-03-28 SEC Red: Bedford @ Pioneer lj 14-05.75 -0.017
2017-03-28 SEC Red: Bedford @ Pioneer 400m 1:08.34 6th · 3rd on team -0.017 SR

2016 TF

Temperance Bedford (MI) · Grade 8

Date Meet Event Result Place Rating Difficulty PR/SR Flags
2016-05-18 Saline Hornet MS Relays lj 13-03.75 -0.033
2016-05-17 Bedford @ Chelsea lj 14-05.00 -0.022
2016-05-17 Bedford @ Chelsea 400m 1:05.83 1st · 1st on team -0.022
2016-05-12 Bedford at Lincoln lj 14'3.5 -0.021
2016-05-12 Bedford at Lincoln 400m 1:04.14 1st · 1st on team -0.021 ★PR SR
2016-05-09 Dexter Mill Creek @ Bedford lj 14'8.5 -0.026
2016-05-09 Dexter Mill Creek @ Bedford 400m 1:06 1st · 1st on team -0.026
2016-05-05 Bedford MS @ Saline MS lj 12'7 -0.030
2016-05-05 Bedford MS @ Saline MS 400m 1:06.38 2nd · 1st on team -0.030
2016-05-02 Bedford at Ypsilanti lj 13'9 -0.021
2016-05-02 Bedford at Ypsilanti 400m 1:08 1st · 1st on team -0.021
2016-04-28 Monroe @ Bedford lj 12'11.75 -0.026
2016-04-28 Monroe @ Bedford 400m 1:06 1st · 1st on team -0.026
2016-04-25 Tecumseh @ Bedford lj 13'8 -0.026
2016-04-25 Tecumseh @ Bedford 400m 1:06 1st · 1st on team -0.026 SR
2016-04-21 Adrian @ Bedford lj 13'5" -0.026
2016-04-21 Adrian @ Bedford 200m 29.54 1st · 1st on team -0.026 PR SR

2015 TF 102.0

Temperance Bedford (MI) · Grade 7

Date Meet Event Result Place Rating Difficulty PR/SR Flags
2015-05-20 Saline Hornet MS Relays lj 12-03.00 -0.033
2015-05-18 Bedford vs Chelsea MS 400m 1:07.14 1st · 1st on team -0.026
2015-05-07 Bedford vs Saline vs Ypsilanti MS lj 12'10 -0.026
2015-05-07 Bedford vs Saline vs Ypsilanti MS 400m 1:05.14 1st · 1st on team -0.026 PR SR
2015-04-16 Time Trials MS Girls 200m 31.24 7th · 7th on team -0.026 PR SR
2015-04-16 Time Trials MS Girls 400m 1:17.14 3rd · 3rd on team -0.026 PR SR
2015-04-16 Time Trials MS Girls 100m 14.24 4th · 4th on team -0.026 PR SR
2015-04-16 Time Trials MS Girls 800m 3:18 11th · 11th on team 102.0 -0.026 ★PR R SR RSR